Impacts TAF Board
For situational awareness. Not to be used for flight planning purposes.
IDs:

KEGE - Eagle Cnty Rgnl, CO, US

Issued at 1121 UTC 07 Jul 2020
Updated at 1351 UTC 07 Jul 2020
Potential Impact None Slight Moderate High
Time<<08/02Z 08/03Z 08/04Z 08/05Z 08/06Z 08/07Z 08/08Z 08/09Z 08/10Z 08/11Z 08/12Z 08/13Z 08/14Z>>
Type PRVL PRVL PRVL PRVL PRVL PRVL PRVL PRVL PRVL PRVL
VIS >6 >6 >6 >6 >6 >6 >6 >6 >6 >6
CIG -- -- -- -- -- -- -- -- -- --
Cover SKC SKC SKC SKC SKC SKC SKC SKC SKC SKC
FltCat VFR VFR VFR VFR VFR VFR VFR VFR VFR VFR
WX -- -- -- -- -- -- -- -- -- --
WDir 220 220 220 220 90 90 90 90 90 90
WSpd 10 10 10 10 5 5 5 5 5 5
WGst -- -- -- -- -- -- -- -- -- --
Raw TAF
KEGE 071121Z 0712/0812 VRB04KT P6SM FEW200
  FM071900 23020G32KT P6SM FEW150 FEW250
  FM080100 23015G25KT P6SM SKC
  FM080200 22010KT P6SM SKC
  FM080600 09005KT P6SM SKC


METAR Board
Radar Display
Forecast Discussion
For situational awareness. Not to be used for flight planning purposes.